sensor_id;sensor_type;location;lat;lon;timestamp;pressure;altitude;pressure_sealevel;temperature;humidity
50430;BME280;36359;41.556;-8.418;2023-03-19T00:01:56;100817.53;;;11.67;100.00
50430;BME280;36359;41.556;-8.418;2023-03-19T00:04:26;100812.97;;;11.67;100.00
50430;BME280;36359;41.556;-8.418;2023-03-19T00:06:52;100816.13;;;11.63;100.00
50430;BME280;36359;41.556;-8.418;2023-03-19T00:09:19;100817.28;;;11.60;100.00
50430;BME280;36359;41.556;-8.418;2023-03-19T00:11:46;100812.13;;;11.57;100.00
50430;BME280;36359;41.556;-8.418;2023-03-19T00:14:12;100802.69;;;11.51;100.00
50430;BME280;36359;41.556;-8.418;2023-03-19T00:16:38;100807.97;;;11.53;100.00
50430;BME280;36359;41.556;-8.418;2023-03-19T00:19:04;100803.09;;;11.47;100.00
50430;BME280;36359;41.556;-8.418;2023-03-19T00:21:30;100801.28;;;11.47;100.00
50430;BME280;36359;41.556;-8.418;2023-03-19T00:23:57;100794.84;;;11.39;100.00
50430;BME280;36359;41.556;-8.418;2023-03-19T00:26:34;100796.28;;;11.33;100.00
50430;BME280;36359;41.556;-8.418;2023-03-19T00:29:00;100795.69;;;11.20;100.00
50430;BME280;36359;41.556;-8.418;2023-03-19T00:31:26;100794.13;;;11.07;100.00
50430;BME280;36359;41.556;-8.418;2023-03-19T00:33:55;100796.38;;;11.02;100.00
50430;BME280;36359;41.556;-8.418;2023-03-19T00:36:21;100794.69;;;11.01;100.00
50430;BME280;36359;41.556;-8.418;2023-03-19T00:38:48;100791.28;;;11.19;100.00
50430;BME280;36359;41.556;-8.418;2023-03-19T00:41:14;100783.41;;;11.45;100.00
50430;BME280;36359;41.556;-8.418;2023-03-19T00:43:41;100779.66;;;11.46;100.00
50430;BME280;36359;41.556;-8.418;2023-03-19T00:46:07;100779.66;;;11.55;100.00
50430;BME280;36359;41.556;-8.418;2023-03-19T00:48:33;100787.25;;;11.52;100.00
50430;BME280;36359;41.556;-8.418;2023-03-19T00:51:09;100789.81;;;11.44;100.00
50430;BME280;36359;41.556;-8.418;2023-03-19T00:53:40;100779.81;;;11.34;100.00
50430;BME280;36359;41.556;-8.418;2023-03-19T00:56:08;100776.53;;;11.21;100.00
50430;BME280;36359;41.556;-8.418;2023-03-19T00:58:34;100777.53;;;11.30;100.00
50430;BME280;36359;41.556;-8.418;2023-03-19T01:01:00;100777.41;;;11.22;100.00
50430;BME280;36359;41.556;-8.418;2023-03-19T01:03:27;100778.97;;;11.05;100.00
50430;BME280;36359;41.556;-8.418;2023-03-19T01:05:52;100781.22;;;11.00;100.00
50430;BME280;36359;41.556;-8.418;2023-03-19T01:08:18;100774.78;;;10.91;100.00
50430;BME280;36359;41.556;-8.418;2023-03-19T01:10:44;100785.25;;;10.86;100.00
50430;BME280;36359;41.556;-8.418;2023-03-19T01:13:12;100775.75;;;10.61;100.00
50430;BME280;36359;41.556;-8.418;2023-03-19T01:15:39;100780.31;;;10.60;100.00
50430;BME280;36359;41.556;-8.418;2023-03-19T01:18:05;100777.16;;;10.55;100.00
50430;BME280;36359;41.556;-8.418;2023-03-19T01:20:33;100772.47;;;10.57;100.00
50430;BME280;36359;41.556;-8.418;2023-03-19T01:22:58;100775.19;;;10.67;100.00
50430;BME280;36359;41.556;-8.418;2023-03-19T01:25:26;100774.66;;;10.83;100.00
50430;BME280;36359;41.556;-8.418;2023-03-19T01:28:00;100770.94;;;10.84;100.00
50430;BME280;36359;41.556;-8.418;2023-03-19T01:30:26;100770.38;;;10.80;100.00
50430;BME280;36359;41.556;-8.418;2023-03-19T01:33:10;100768.06;;;10.76;100.00
50430;BME280;36359;41.556;-8.418;2023-03-19T01:35:50;100771.91;;;10.73;100.00
50430;BME280;36359;41.556;-8.418;2023-03-19T01:38:17;100771.50;;;10.78;100.00
50430;BME280;36359;41.556;-8.418;2023-03-19T01:40:46;100765.22;;;10.77;100.00
50430;BME280;36359;41.556;-8.418;2023-03-19T01:43:21;100769.81;;;10.96;100.00
50430;BME280;36359;41.556;-8.418;2023-03-19T01:46:12;100768.06;;;10.76;100.00
50430;BME280;36359;41.556;-8.418;2023-03-19T01:49:00;100757.78;;;10.69;100.00
50430;BME280;36359;41.556;-8.418;2023-03-19T01:51:29;100763.53;;;11.05;100.00
50430;BME280;36359;41.556;-8.418;2023-03-19T01:54:21;100766.91;;;10.68;100.00
50430;BME280;36359;41.556;-8.418;2023-03-19T01:57:02;100766.81;;;10.89;100.00
50430;BME280;36359;41.556;-8.418;2023-03-19T01:59:56;100767.47;;;10.62;100.00
50430;BME280;36359;41.556;-8.418;2023-03-19T02:02:43;100766.59;;;10.52;100.00
50430;BME280;36359;41.556;-8.418;2023-03-19T02:05:25;100765.25;;;10.27;100.00
50430;BME280;36359;41.556;-8.418;2023-03-19T02:07:57;100760.00;;;10.14;100.00
50430;BME280;36359;41.556;-8.418;2023-03-19T02:10:24;100767.09;;;10.27;100.00
50430;BME280;36359;41.556;-8.418;2023-03-19T02:12:51;100759.09;;;10.35;100.00
50430;BME280;36359;41.556;-8.418;2023-03-19T02:15:17;100758.59;;;10.51;100.00
50430;BME280;36359;41.556;-8.418;2023-03-19T02:17:44;100755.00;;;10.40;100.00
50430;BME280;36359;41.556;-8.418;2023-03-19T02:25:29;100760.06;;;10.24;100.00
50430;BME280;36359;41.556;-8.418;2023-03-19T02:27:58;100756.94;;;10.29;100.00
50430;BME280;36359;41.556;-8.418;2023-03-19T02:30:28;100751.53;;;10.29;100.00
50430;BME280;36359;41.556;-8.418;2023-03-19T02:32:59;100745.41;;;10.27;100.00
50430;BME280;36359;41.556;-8.418;2023-03-19T02:35:29;100747.34;;;10.24;100.00
50430;BME280;36359;41.556;-8.418;2023-03-19T02:37:56;100744.47;;;10.16;100.00
50430;BME280;36359;41.556;-8.418;2023-03-19T02:40:25;100741.22;;;9.92;100.00
50430;BME280;36359;41.556;-8.418;2023-03-19T02:42:53;100740.97;;;9.95;100.00
50430;BME280;36359;41.556;-8.418;2023-03-19T02:45:23;100735.13;;;9.99;100.00
50430;BME280;36359;41.556;-8.418;2023-03-19T02:47:52;100721.38;;;10.22;100.00
50430;BME280;36359;41.556;-8.418;2023-03-19T02:50:18;100721.25;;;10.23;100.00
50430;BME280;36359;41.556;-8.418;2023-03-19T02:52:43;100723.03;;;10.04;100.00
50430;BME280;36359;41.556;-8.418;2023-03-19T02:55:09;100727.03;;;10.09;100.00
50430;BME280;36359;41.556;-8.418;2023-03-19T02:57:35;100723.03;;;10.04;100.00
50430;BME280;36359;41.556;-8.418;2023-03-19T03:00:01;100725.91;;;10.12;100.00
50430;BME280;36359;41.556;-8.418;2023-03-19T03:02:27;100729.25;;;9.94;100.00
50430;BME280;36359;41.556;-8.418;2023-03-19T03:04:53;100733.41;;;9.98;100.00
50430;BME280;36359;41.556;-8.418;2023-03-19T03:07:19;100733.88;;;10.04;100.00
50430;BME280;36359;41.556;-8.418;2023-03-19T03:09:45;100720.84;;;9.97;100.00
50430;BME280;36359;41.556;-8.418;2023-03-19T03:12:11;100731.25;;;9.92;100.00
50430;BME280;36359;41.556;-8.418;2023-03-19T03:14:37;100728.56;;;9.71;100.00
50430;BME280;36359;41.556;-8.418;2023-03-19T03:17:02;100729.81;;;9.88;100.00
50430;BME280;36359;41.556;-8.418;2023-03-19T03:19:28;100721.34;;;10.12;100.00
50430;BME280;36359;41.556;-8.418;2023-03-19T03:21:54;100722.22;;;10.22;100.00
50430;BME280;36359;41.556;-8.418;2023-03-19T03:24:20;100721.63;;;10.19;100.00
50430;BME280;36359;41.556;-8.418;2023-03-19T03:26:46;100718.63;;;10.12;100.00
50430;BME280;36359;41.556;-8.418;2023-03-19T03:29:14;100718.44;;;10.04;100.00
50430;BME280;36359;41.556;-8.418;2023-03-19T03:31:40;100713.00;;;9.94;100.00
50430;BME280;36359;41.556;-8.418;2023-03-19T03:34:05;100708.13;;;9.88;100.00
50430;BME280;36359;41.556;-8.418;2023-03-19T03:36:31;100721.41;;;9.91;100.00
50430;BME280;36359;41.556;-8.418;2023-03-19T03:38:58;100721.38;;;10.22;100.00
50430;BME280;36359;41.556;-8.418;2023-03-19T03:41:24;100721.91;;;10.06;100.00
50430;BME280;36359;41.556;-8.418;2023-03-19T03:43:50;100728.38;;;9.94;100.00
50430;BME280;36359;41.556;-8.418;2023-03-19T03:46:16;100731.25;;;9.92;100.00
50430;BME280;36359;41.556;-8.418;2023-03-19T03:48:43;100734.56;;;10.27;100.00
50430;BME280;36359;41.556;-8.418;2023-03-19T03:51:09;100735.72;;;10.03;100.00
50430;BME280;36359;41.556;-8.418;2023-03-19T03:56:04;100727.72;;;10.01;100.00
50430;BME280;36359;41.556;-8.418;2023-03-19T03:58:30;100731.38;;;9.91;100.00
50430;BME280;36359;41.556;-8.418;2023-03-19T04:00:57;100732.00;;;9.73;100.00
50430;BME280;36359;41.556;-8.418;2023-03-19T04:03:23;100727.91;;;9.58;100.00
50430;BME280;36359;41.556;-8.418;2023-03-19T04:05:50;100741.41;;;9.48;100.00
50430;BME280;36359;41.556;-8.418;2023-03-19T04:08:16;100737.78;;;9.59;100.00
50430;BME280;36359;41.556;-8.418;2023-03-19T04:10:42;100755.53;;;9.52;100.00
50430;BME280;36359;41.556;-8.418;2023-03-19T04:13:09;100750.19;;;9.41;100.00
50430;BME280;36359;41.556;-8.418;2023-03-19T04:15:35;100747.72;;;8.96;100.00
50430;BME280;36359;41.556;-8.418;2023-03-19T04:18:01;100743.25;;;9.06;100.00
50430;BME280;36359;41.556;-8.418;2023-03-19T04:20:28;100748.44;;;9.30;100.00
50430;BME280;36359;41.556;-8.418;2023-03-19T04:22:54;100751.06;;;9.41;100.00
50430;BME280;36359;41.556;-8.418;2023-03-19T04:25:20;100744.06;;;9.39;100.00
50430;BME280;36359;41.556;-8.418;2023-03-19T04:27:46;100745.78;;;9.40;100.00
50430;BME280;36359;41.556;-8.418;2023-03-19T04:30:13;100749.00;;;9.33;100.00
50430;BME280;36359;41.556;-8.418;2023-03-19T04:32:38;100753.16;;;9.38;100.00
50430;BME280;36359;41.556;-8.418;2023-03-19T04:35:05;100763.59;;;9.21;100.00
50430;BME280;36359;41.556;-8.418;2023-03-19T04:37:31;100761.22;;;9.28;100.00
50430;BME280;36359;41.556;-8.418;2023-03-19T04:39:56;100760.69;;;9.34;100.00
50430;BME280;36359;41.556;-8.418;2023-03-19T04:42:24;100770.69;;;9.33;100.00
50430;BME280;36359;41.556;-8.418;2023-03-19T04:45:09;100769.69;;;9.35;100.00
50430;BME280;36359;41.556;-8.418;2023-03-19T04:47:35;100784.53;;;9.40;100.00
50430;BME280;36359;41.556;-8.418;2023-03-19T04:50:00;100773.78;;;9.50;100.00
50430;BME280;36359;41.556;-8.418;2023-03-19T04:52:28;100774.38;;;9.53;100.00
50430;BME280;36359;41.556;-8.418;2023-03-19T04:54:55;100777.81;;;9.55;100.00
50430;BME280;36359;41.556;-8.418;2023-03-19T04:57:21;100777.41;;;9.60;100.00
50430;BME280;36359;41.556;-8.418;2023-03-19T04:59:50;100773.38;;;9.54;100.00
50430;BME280;36359;41.556;-8.418;2023-03-19T05:02:17;100776.69;;;9.58;100.00
50430;BME280;36359;41.556;-8.418;2023-03-19T05:04:44;100780.72;;;9.64;100.00
50430;BME280;36359;41.556;-8.418;2023-03-19T05:07:12;100791.44;;;9.44;100.00
50430;BME280;36359;41.556;-8.418;2023-03-19T05:09:39;100795.63;;;9.37;100.00
50430;BME280;36359;41.556;-8.418;2023-03-19T05:12:11;100789.97;;;9.40;100.00
50430;BME280;36359;41.556;-8.418;2023-03-19T05:14:42;100792.47;;;9.32;100.00
50430;BME280;36359;41.556;-8.418;2023-03-19T05:17:19;100789.81;;;8.89;100.00
50430;BME280;36359;41.556;-8.418;2023-03-19T05:20:06;100793.75;;;8.84;100.00
50430;BME280;36359;41.556;-8.418;2023-03-19T05:22:34;100795.25;;;8.77;100.00
50430;BME280;36359;41.556;-8.418;2023-03-19T05:25:00;100786.34;;;8.09;100.00
50430;BME280;36359;41.556;-8.418;2023-03-19T05:27:45;100785.47;;;8.09;100.00
50430;BME280;36359;41.556;-8.418;2023-03-19T05:30:17;100794.81;;;8.05;100.00
50430;BME280;36359;41.556;-8.418;2023-03-19T05:33:00;100803.31;;;8.56;100.00
50430;BME280;36359;41.556;-8.418;2023-03-19T05:35:35;100798.63;;;8.13;100.00
50430;BME280;36359;41.556;-8.418;2023-03-19T05:38:04;100807.31;;;7.83;100.00
50430;BME280;36359;41.556;-8.418;2023-03-19T05:40:30;100799.97;;;7.85;100.00
50430;BME280;36359;41.556;-8.418;2023-03-19T05:43:03;100808.81;;;7.99;100.00
50430;BME280;36359;41.556;-8.418;2023-03-19T05:45:29;100806.22;;;8.19;100.00
50430;BME280;36359;41.556;-8.418;2023-03-19T05:48:01;100814.47;;;8.29;100.00
50430;BME280;36359;41.556;-8.418;2023-03-19T05:50:31;100812.78;;;8.39;100.00
50430;BME280;36359;41.556;-8.418;2023-03-19T05:53:18;100816.94;;;8.44;100.00
50430;BME280;36359;41.556;-8.418;2023-03-19T05:55:58;100823.91;;;8.35;100.00
50430;BME280;36359;41.556;-8.418;2023-03-19T05:58:24;100824.06;;;8.22;100.00
50430;BME280;36359;41.556;-8.418;2023-03-19T06:00:50;100818.53;;;8.69;100.00
50430;BME280;36359;41.556;-8.418;2023-03-19T06:03:16;100823.25;;;8.87;100.00
50430;BME280;36359;41.556;-8.418;2023-03-19T06:05:50;100821.06;;;8.81;100.00
50430;BME280;36359;41.556;-8.418;2023-03-19T06:08:43;100821.16;;;8.91;100.00
50430;BME280;36359;41.556;-8.418;2023-03-19T06:11:22;100829.06;;;8.94;100.00
50430;BME280;36359;41.556;-8.418;2023-03-19T06:14:00;100828.91;;;8.96;100.00
50430;BME280;36359;41.556;-8.418;2023-03-19T06:16:26;100823.75;;;8.93;100.00
50430;BME280;36359;41.556;-8.418;2023-03-19T06:18:53;100833.38;;;8.85;100.00
50430;BME280;36359;41.556;-8.418;2023-03-19T06:21:19;100829.31;;;8.80;100.00
50430;BME280;36359;41.556;-8.418;2023-03-19T06:23:45;100826.28;;;8.51;100.00
50430;BME280;36359;41.556;-8.418;2023-03-19T06:26:14;100821.84;;;8.50;100.00
50430;BME280;36359;41.556;-8.418;2023-03-19T06:29:00;100837.06;;;8.28;100.00
50430;BME280;36359;41.556;-8.418;2023-03-19T06:31:26;100836.22;;;8.61;100.00
50430;BME280;36359;41.556;-8.418;2023-03-19T06:33:53;100839.91;;;8.38;100.00
50430;BME280;36359;41.556;-8.418;2023-03-19T06:36:21;100836.63;;;8.46;100.00
50430;BME280;36359;41.556;-8.418;2023-03-19T06:38:47;100836.72;;;8.33;100.00
50430;BME280;36359;41.556;-8.418;2023-03-19T06:41:13;100834.88;;;8.33;100.00
50430;BME280;36359;41.556;-8.418;2023-03-19T06:43:39;100845.09;;;8.52;100.00
50430;BME280;36359;41.556;-8.418;2023-03-19T06:46:07;100846.19;;;8.61;100.00
50430;BME280;36359;41.556;-8.418;2023-03-19T06:48:34;100835.50;;;8.71;100.00
50430;BME280;36359;41.556;-8.418;2023-03-19T06:51:00;100831.81;;;8.60;100.00
50430;BME280;36359;41.556;-8.418;2023-03-19T06:53:27;100830.97;;;8.49;100.00
50430;BME280;36359;41.556;-8.418;2023-03-19T06:55:52;100824.44;;;8.40;100.00
50430;BME280;36359;41.556;-8.418;2023-03-19T06:58:18;100824.81;;;8.24;100.00
50430;BME280;36359;41.556;-8.418;2023-03-19T07:00:45;100826.41;;;8.49;100.00
50430;BME280;36359;41.556;-8.418;2023-03-19T07:03:11;100823.94;;;8.12;100.00
50430;BME280;36359;41.556;-8.418;2023-03-19T07:05:36;100810.44;;;8.24;100.00
50430;BME280;36359;41.556;-8.418;2023-03-19T07:08:02;100819.63;;;8.10;100.00
50430;BME280;36359;41.556;-8.418;2023-03-19T07:10:28;100823.66;;;8.38;100.00
50430;BME280;36359;41.556;-8.418;2023-03-19T07:12:54;100827.38;;;8.37;100.00
50430;BME280;36359;41.556;-8.418;2023-03-19T07:15:19;100818.75;;;8.20;100.00
50430;BME280;36359;41.556;-8.418;2023-03-19T07:17:46;100828.97;;;8.17;100.00
50430;BME280;36359;41.556;-8.418;2023-03-19T07:20:13;100834.88;;;8.67;100.00
50430;BME280;36359;41.556;-8.418;2023-03-19T07:22:39;100830.47;;;8.44;100.00
50430;BME280;36359;41.556;-8.418;2023-03-19T07:25:05;100835.84;;;7.99;100.00
50430;BME280;36359;41.556;-8.418;2023-03-19T07:27:31;100844.28;;;7.83;100.00
50430;BME280;36359;41.556;-8.418;2023-03-19T07:29:57;100839.16;;;7.44;100.00
50430;BME280;36359;41.556;-8.418;2023-03-19T07:32:23;100836.47;;;7.56;100.00
50430;BME280;36359;41.556;-8.418;2023-03-19T07:34:48;100827.47;;;8.02;100.00
50430;BME280;36359;41.556;-8.418;2023-03-19T07:37:14;100837.31;;;8.14;100.00
50430;BME280;36359;41.556;-8.418;2023-03-19T07:39:40;100819.63;;;8.10;100.00
50430;BME280;36359;41.556;-8.418;2023-03-19T07:42:06;100816.44;;;8.16;100.00
50430;BME280;36359;41.556;-8.418;2023-03-19T07:44:32;100813.25;;;8.22;100.00
50430;BME280;36359;41.556;-8.418;2023-03-19T07:46:58;100811.88;;;8.28;100.00
50430;BME280;36359;41.556;-8.418;2023-03-19T07:49:24;100812.75;;;8.28;100.00
50430;BME280;36359;41.556;-8.418;2023-03-19T07:51:50;100803.28;;;8.23;100.00
50430;BME280;36359;41.556;-8.418;2023-03-19T07:54:16;100811.28;;;8.35;100.00
50430;BME280;36359;41.556;-8.418;2023-03-19T07:56:42;100816.34;;;8.40;100.00
50430;BME280;36359;41.556;-8.418;2023-03-19T07:59:07;100807.47;;;8.49;100.00
50430;BME280;36359;41.556;-8.418;2023-03-19T08:01:35;100815.94;;;8.56;100.00
50430;BME280;36359;41.556;-8.418;2023-03-19T08:04:00;100822.84;;;8.60;100.00
50430;BME280;36359;41.556;-8.418;2023-03-19T08:06:45;100825.56;;;8.49;100.00
50430;BME280;36359;41.556;-8.418;2023-03-19T08:09:11;100828.84;;;8.52;100.00
50430;BME280;36359;41.556;-8.418;2023-03-19T08:11:36;100842.47;;;8.73;100.00
50430;BME280;36359;41.556;-8.418;2023-03-19T08:14:02;100840.25;;;8.90;100.00
50430;BME280;36359;41.556;-8.418;2023-03-19T08:16:28;100839.63;;;8.97;100.00
50430;BME280;36359;41.556;-8.418;2023-03-19T08:18:53;100825.19;;;8.97;100.00
50430;BME280;36359;41.556;-8.418;2023-03-19T08:21:19;100831.00;;;9.03;100.00
50430;BME280;36359;41.556;-8.418;2023-03-19T08:23:45;100833.41;;;9.18;100.00
50430;BME280;36359;41.556;-8.418;2023-03-19T08:26:10;100823.56;;;9.38;100.00
50430;BME280;36359;41.556;-8.418;2023-03-19T08:28:36;100821.59;;;9.40;100.00
50430;BME280;36359;41.556;-8.418;2023-03-19T08:31:07;100836.28;;;9.58;100.00
50430;BME280;36359;41.556;-8.418;2023-03-19T08:33:33;100834.47;;;9.80;100.00
50430;BME280;36359;41.556;-8.418;2023-03-19T08:36:09;100833.47;;;9.81;100.00
50430;BME280;36359;41.556;-8.418;2023-03-19T08:38:36;100842.31;;;10.04;100.00
50430;BME280;36359;41.556;-8.418;2023-03-19T08:41:02;100843.50;;;9.69;100.00
50430;BME280;36359;41.556;-8.418;2023-03-19T08:43:30;100842.06;;;9.86;100.00
50430;BME280;36359;41.556;-8.418;2023-03-19T08:45:56;100832.47;;;9.82;100.00
50430;BME280;36359;41.556;-8.418;2023-03-19T08:48:22;100834.84;;;9.96;100.00
50430;BME280;36359;41.556;-8.418;2023-03-19T08:50:56;100841.03;;;10.29;100.00
50430;BME280;36359;41.556;-8.418;2023-03-19T08:53:22;100844.06;;;10.14;100.00
50430;BME280;36359;41.556;-8.418;2023-03-19T08:55:59;100843.03;;;10.27;100.00
50430;BME280;36359;41.556;-8.418;2023-03-19T08:58:26;100843.09;;;10.46;100.00
50430;BME280;36359;41.556;-8.418;2023-03-19T09:00:52;100840.75;;;10.62;100.00
50430;BME280;36359;41.556;-8.418;2023-03-19T09:03:19;100842.63;;;10.72;100.00
50430;BME280;36359;41.556;-8.418;2023-03-19T09:05:46;100837.13;;;10.52;100.00
50430;BME280;36359;41.556;-8.418;2023-03-19T09:08:12;100845.53;;;10.80;100.00
50430;BME280;36359;41.556;-8.418;2023-03-19T09:10:38;100843.50;;;10.82;100.00
50430;BME280;36359;41.556;-8.418;2023-03-19T09:13:04;100828.84;;;11.04;100.00
50430;BME280;36359;41.556;-8.418;2023-03-19T09:15:29;100842.94;;;10.88;100.00
50430;BME280;36359;41.556;-8.418;2023-03-19T09:17:55;100836.56;;;11.08;100.00
50430;BME280;36359;41.556;-8.418;2023-03-19T09:20:21;100832.44;;;11.43;100.00
50430;BME280;36359;41.556;-8.418;2023-03-19T09:22:47;100827.28;;;11.40;100.00
50430;BME280;36359;41.556;-8.418;2023-03-19T09:25:12;100824.00;;;11.46;100.00
50430;BME280;36359;41.556;-8.418;2023-03-19T09:27:38;100822.13;;;11.47;100.00
50430;BME280;36359;41.556;-8.418;2023-03-19T09:30:05;100826.84;;;11.64;100.00
50430;BME280;36359;41.556;-8.418;2023-03-19T09:32:35;100836.75;;;11.36;100.00
50430;BME280;36359;41.556;-8.418;2023-03-19T09:35:00;100834.28;;;11.23;100.00
50430;BME280;36359;41.556;-8.418;2023-03-19T09:37:27;100830.72;;;11.42;100.00
50430;BME280;36359;41.556;-8.418;2023-03-19T09:39:52;100836.31;;;11.50;100.00
50430;BME280;36359;41.556;-8.418;2023-03-19T09:45:14;100828.72;;;11.64;100.00
50430;BME280;36359;41.556;-8.418;2023-03-19T09:47:41;100839.88;;;11.41;100.00
50430;BME280;36359;41.556;-8.418;2023-03-19T09:50:13;100841.03;;;11.68;100.00
50430;BME280;36359;41.556;-8.418;2023-03-19T09:57:57;100830.91;;;12.17;100.00
50430;BME280;36359;41.556;-8.418;2023-03-19T10:00:33;100842.97;;;12.52;100.00
50430;BME280;36359;41.556;-8.418;2023-03-19T10:06:11;100856.53;;;12.61;100.00
50430;BME280;36359;41.556;-8.418;2023-03-19T10:14:35;100868.09;;;13.01;100.00
50430;BME280;36359;41.556;-8.418;2023-03-19T10:17:11;100871.66;;;13.29;100.00
50430;BME280;36359;41.556;-8.418;2023-03-19T10:19:50;100875.41;;;13.28;99.86
50430;BME280;36359;41.556;-8.418;2023-03-19T10:22:31;100876.34;;;13.36;97.24
50430;BME280;36359;41.556;-8.418;2023-03-19T10:24:58;100877.84;;;13.21;98.54
50430;BME280;36359;41.556;-8.418;2023-03-19T10:27:26;100874.69;;;12.98;99.15
50430;BME280;36359;41.556;-8.418;2023-03-19T10:29:54;100873.56;;;13.18;99.47
50430;BME280;36359;41.556;-8.418;2023-03-19T10:32:36;100868.38;;;13.25;98.40
50430;BME280;36359;41.556;-8.418;2023-03-19T10:35:32;100863.16;;;13.50;97.38
50430;BME280;36359;41.556;-8.418;2023-03-19T10:38:16;100859.75;;;13.48;91.95
50430;BME280;36359;41.556;-8.418;2023-03-19T10:41:03;100850.84;;;13.81;94.52
50430;BME280;36359;41.556;-8.418;2023-03-19T10:43:36;100843.03;;;13.86;90.02
50430;BME280;36359;41.556;-8.418;2023-03-19T10:46:01;100846.31;;;14.16;88.85
50430;BME280;36359;41.556;-8.418;2023-03-19T10:48:28;100841.66;;;14.35;88.50
50430;BME280;36359;41.556;-8.418;2023-03-19T10:50:59;100838.31;;;14.49;85.44
50430;BME280;36359;41.556;-8.418;2023-03-19T10:58:30;100822.63;;;14.17;87.75
50430;BME280;36359;41.556;-8.418;2023-03-19T11:01:08;100818.75;;;14.27;95.86
50430;BME280;36359;41.556;-8.418;2023-03-19T11:03:49;100814.22;;;14.36;86.95
50430;BME280;36359;41.556;-8.418;2023-03-19T11:06:18;100807.31;;;14.24;85.37
50430;BME280;36359;41.556;-8.418;2023-03-19T11:08:57;100815.75;;;14.39;87.51
50430;BME280;36359;41.556;-8.418;2023-03-19T11:14:07;100825.84;;;14.46;81.91
50430;BME280;36359;41.556;-8.418;2023-03-19T11:19:21;100819.66;;;14.70;84.78
50430;BME280;36359;41.556;-8.418;2023-03-19T11:24:41;100839.47;;;14.72;78.97
50430;BME280;36359;41.556;-8.418;2023-03-19T11:27:08;100848.38;;;14.74;80.91
50430;BME280;36359;41.556;-8.418;2023-03-19T11:29:40;100849.59;;;14.80;82.05
50430;BME280;36359;41.556;-8.418;2023-03-19T11:32:12;100843.94;;;14.82;85.21
50430;BME280;36359;41.556;-8.418;2023-03-19T11:35:10;100845.59;;;14.66;85.00
50430;BME280;36359;41.556;-8.418;2023-03-19T11:37:54;100853.81;;;14.66;81.55
50430;BME280;36359;41.556;-8.418;2023-03-19T11:51:29;100844.38;;;15.03;78.61
50430;BME280;36359;41.556;-8.418;2023-03-19T12:02:39;100820.88;;;15.43;74.67
50430;BME280;36359;41.556;-8.418;2023-03-19T12:19:31;100799.38;;;15.81;70.48
50430;BME280;36359;41.556;-8.418;2023-03-19T12:22:24;100786.34;;;15.99;71.69
50430;BME280;36359;41.556;-8.418;2023-03-19T12:25:19;100787.38;;;15.90;69.74
50430;BME280;36359;41.556;-8.418;2023-03-19T12:30:54;100788.03;;;16.08;70.67
50430;BME280;36359;41.556;-8.418;2023-03-19T12:36:20;100773.25;;;16.26;68.33
50430;BME280;36359;41.556;-8.418;2023-03-19T12:39:01;100771.78;;;16.07;69.19
50430;BME280;36359;41.556;-8.418;2023-03-19T12:41:31;100765.41;;;16.23;69.42
50430;BME280;36359;41.556;-8.418;2023-03-19T12:44:04;100770.84;;;16.31;67.05
50430;BME280;36359;41.556;-8.418;2023-03-19T12:47:02;100771.69;;;16.31;68.81
50430;BME280;36359;41.556;-8.418;2023-03-19T12:49:34;100772.25;;;16.27;66.12
50430;BME280;36359;41.556;-8.418;2023-03-19T12:52:19;100771.50;;;16.41;69.67
50430;BME280;36359;41.556;-8.418;2023-03-19T12:54:58;100769.03;;;16.63;69.20
50430;BME280;36359;41.556;-8.418;2023-03-19T13:00:09;100754.03;;;16.82;64.83
50430;BME280;36359;41.556;-8.418;2023-03-19T13:05:38;100735.22;;;16.78;66.06
50430;BME280;36359;41.556;-8.418;2023-03-19T13:10:38;100731.53;;;17.17;65.09
50430;BME280;36359;41.556;-8.418;2023-03-19T13:16:00;100718.38;;;17.36;63.77
50430;BME280;36359;41.556;-8.418;2023-03-19T13:18:39;100718.06;;;17.31;64.71
50430;BME280;36359;41.556;-8.418;2023-03-19T13:21:21;100712.25;;;17.25;65.15
50430;BME280;36359;41.556;-8.418;2023-03-19T13:23:57;100709.63;;;17.32;64.45
50430;BME280;36359;41.556;-8.418;2023-03-19T13:26:25;100703.66;;;17.29;65.01
50430;BME280;36359;41.556;-8.418;2023-03-19T13:29:01;100703.06;;;17.41;62.15
50430;BME280;36359;41.556;-8.418;2023-03-19T13:31:32;100703.69;;;16.83;63.33
50430;BME280;36359;41.556;-8.418;2023-03-19T13:36:27;100707.94;;;17.08;64.79
50430;BME280;36359;41.556;-8.418;2023-03-19T13:38:56;100705.03;;;17.33;63.60
50430;BME280;36359;41.556;-8.418;2023-03-19T13:41:50;100700.63;;;17.23;63.04
50430;BME280;36359;41.556;-8.418;2023-03-19T13:46:47;100692.09;;;17.41;62.29
50430;BME280;36359;41.556;-8.418;2023-03-19T13:49:34;100696.56;;;17.57;64.28
50430;BME280;36359;41.556;-8.418;2023-03-19T13:54:42;100692.34;;;17.09;62.23
50430;BME280;36359;41.556;-8.418;2023-03-19T13:59:40;100682.28;;;17.62;63.15
50430;BME280;36359;41.556;-8.418;2023-03-19T14:04:51;100683.75;;;17.87;61.14
50430;BME280;36359;41.556;-8.418;2023-03-19T14:07:24;100682.03;;;18.01;61.21
50430;BME280;36359;41.556;-8.418;2023-03-19T14:12:35;100672.94;;;18.15;60.05
50430;BME280;36359;41.556;-8.418;2023-03-19T14:15:14;100677.56;;;18.30;57.82
50430;BME280;36359;41.556;-8.418;2023-03-19T14:17:52;100665.44;;;18.24;58.18
50430;BME280;36359;41.556;-8.418;2023-03-19T14:29:03;100662.72;;;18.24;57.60
50430;BME280;36359;41.556;-8.418;2023-03-19T14:31:40;100656.38;;;18.09;57.97
50430;BME280;36359;41.556;-8.418;2023-03-19T14:36:40;100654.59;;;18.01;58.82
50430;BME280;36359;41.556;-8.418;2023-03-19T14:39:21;100646.63;;;17.77;59.17
50430;BME280;36359;41.556;-8.418;2023-03-19T14:41:59;100647.66;;;17.90;60.89
50430;BME280;36359;41.556;-8.418;2023-03-19T14:53:04;100636.09;;;18.25;58.75
50430;BME280;36359;41.556;-8.418;2023-03-19T14:55:40;100645.56;;;18.22;58.32